createdAt,value
2019-01-23T00:01:00.301Z,58.90
2019-01-23T00:03:29.204Z,60.97
2019-01-23T00:05:58.138Z,66.17
2019-01-23T00:08:27.081Z,60.30
2019-01-23T00:10:56.045Z,66.37
2019-01-23T00:13:24.977Z,60.63
2019-01-23T00:15:53.899Z,69.27
2019-01-23T00:18:22.845Z,61.07
2019-01-23T00:20:51.779Z,58.93
2019-01-23T00:23:20.708Z,57.67
2019-01-23T00:25:49.619Z,54.57
2019-01-23T00:28:18.542Z,62.17
2019-01-23T00:30:47.478Z,53.97
2019-01-23T00:33:16.383Z,55.27
2019-01-23T00:35:45.327Z,60.20
2019-01-23T00:38:14.234Z,66.37
2019-01-23T00:40:43.162Z,55.80
2019-01-23T00:43:12.082Z,55.73
2019-01-23T00:45:41.003Z,55.17
2019-01-23T00:48:09.950Z,57.03
2019-01-23T00:50:38.893Z,56.27
2019-01-23T00:53:07.878Z,52.50
2019-01-23T00:55:36.812Z,52.73
2019-01-23T00:58:05.743Z,55.10
2019-01-23T01:00:34.665Z,59.60
2019-01-23T01:03:03.622Z,56.43
2019-01-23T01:05:32.568Z,53.87
2019-01-23T01:08:01.501Z,53.60
2019-01-23T01:10:30.480Z,56.83
2019-01-23T01:12:59.418Z,57.73
2019-01-23T01:15:28.349Z,55.20
2019-01-23T01:17:57.271Z,56.30
2019-01-23T01:20:26.218Z,61.33
2019-01-23T01:22:55.136Z,53.87
2019-01-23T01:25:24.072Z,54.10
2019-01-23T01:27:52.998Z,53.53
2019-01-23T01:30:23.067Z,54.70
2019-01-23T01:32:52.004Z,61.00
2019-01-23T01:35:20.910Z,58.60
2019-01-23T01:37:49.856Z,56.07
2019-01-23T01:40:18.865Z,60.77
2019-01-23T01:42:47.790Z,55.47
2019-01-23T01:45:16.900Z,54.23
2019-01-23T01:47:45.805Z,54.83
2019-01-23T01:50:16.751Z,55.03
2019-01-23T01:52:45.675Z,57.17
2019-01-23T01:55:14.610Z,52.33
2019-01-23T01:57:43.534Z,53.97
2019-01-23T02:00:20.501Z,54.13
2019-01-23T02:02:49.426Z,49.50
2019-01-23T02:05:18.488Z,54.53
2019-01-23T02:07:47.399Z,56.70
2019-01-23T02:10:18.235Z,56.93
2019-01-23T02:12:47.170Z,56.10
2019-01-23T02:15:16.110Z,56.17
2019-01-23T02:17:45.059Z,51.27
2019-01-23T02:20:16.531Z,59.17
2019-01-23T02:22:45.446Z,56.53
2019-01-23T02:25:14.400Z,52.93
2019-01-23T02:27:43.613Z,55.57
2019-01-23T02:30:13.319Z,56.63
2019-01-23T02:32:42.252Z,59.43
2019-01-23T02:35:11.210Z,56.73
2019-01-23T02:37:40.145Z,55.90
2019-01-23T02:40:12.475Z,57.47
2019-01-23T02:42:41.420Z,55.80
2019-01-23T02:45:10.441Z,61.47
2019-01-23T02:47:39.353Z,57.13
2019-01-23T02:50:08.326Z,62.23
2019-01-23T02:52:37.251Z,59.30
2019-01-23T02:55:07.287Z,59.23
2019-01-23T02:57:36.214Z,58.70
2019-01-23T03:00:07.467Z,58.33
2019-01-23T03:02:36.412Z,57.53
2019-01-23T03:05:07.381Z,55.03
2019-01-23T03:07:36.318Z,59.80
2019-01-23T03:10:06.658Z,57.37
2019-01-23T03:12:35.560Z,60.50
2019-01-23T03:15:05.823Z,57.97
2019-01-23T03:17:34.735Z,60.13
2019-01-23T03:20:03.804Z,58.13
2019-01-23T03:22:32.732Z,58.43
2019-01-23T03:25:01.668Z,62.17
2019-01-23T03:27:30.601Z,61.73
2019-01-23T03:29:59.550Z,58.37
2019-01-23T03:32:28.457Z,63.50
2019-01-23T03:34:57.390Z,56.53
2019-01-23T03:37:26.323Z,66.00
2019-01-23T03:39:55.262Z,66.37
2019-01-23T03:42:24.194Z,62.50
2019-01-23T03:44:53.113Z,58.63
2019-01-23T03:47:22.042Z,58.00
2019-01-23T03:49:51.017Z,63.43
2019-01-23T03:52:19.883Z,59.60
2019-01-23T03:54:48.786Z,58.83
2019-01-23T03:57:17.719Z,62.43
2019-01-23T03:59:46.648Z,59.77
2019-01-23T04:02:15.609Z,60.57
2019-01-23T04:04:44.574Z,58.47
2019-01-23T04:07:13.428Z,57.37
2019-01-23T04:09:42.373Z,58.60
2019-01-23T04:12:11.322Z,56.63
2019-01-23T04:14:40.215Z,59.57
2019-01-23T04:17:09.156Z,59.37
2019-01-23T04:19:38.110Z,64.80
2019-01-23T04:22:06.905Z,61.33
2019-01-23T04:24:35.792Z,60.83
2019-01-23T04:27:04.687Z,60.17
2019-01-23T04:29:39.480Z,60.03
2019-01-23T04:32:02.483Z,59.63
2019-01-23T04:34:31.348Z,60.70
2019-01-23T04:37:00.208Z,61.00
2019-01-23T04:39:29.073Z,61.43
2019-01-23T04:41:57.953Z,62.20
2019-01-23T04:44:26.851Z,62.40
2019-01-23T04:46:55.711Z,62.53
2019-01-23T04:49:24.577Z,62.33
2019-01-23T04:52:05.027Z,61.73
2019-01-23T04:54:33.879Z,59.00
2019-01-23T04:57:02.775Z,60.60
2019-01-23T04:59:31.624Z,61.00
2019-01-23T05:02:00.534Z,59.43
2019-01-23T05:04:29.407Z,59.93
2019-01-23T05:06:58.304Z,57.80
2019-01-23T05:09:27.202Z,69.57
2019-01-23T05:11:56.088Z,70.63
2019-01-23T05:14:24.962Z,67.70
2019-01-23T05:16:53.849Z,66.13
2019-01-23T05:19:22.735Z,62.93
2019-01-23T05:21:51.632Z,62.40
2019-01-23T05:24:20.513Z,69.07
2019-01-23T05:26:49.374Z,70.08
2019-01-23T05:29:18.266Z,69.65
2019-01-23T05:31:47.116Z,60.17
2019-01-23T05:34:15.999Z,61.20
2019-01-23T05:36:44.855Z,61.80
2019-01-23T05:39:13.732Z,61.87
2019-01-23T05:41:42.575Z,60.50
2019-01-23T05:44:11.485Z,61.63
2019-01-23T05:46:40.349Z,61.27
2019-01-23T05:49:09.223Z,60.73
2019-01-23T05:51:38.118Z,63.67
2019-01-23T05:54:07.033Z,64.20
2019-01-23T05:56:35.923Z,65.93
2019-01-23T05:59:04.890Z,58.17
2019-01-23T06:01:33.747Z,64.03
2019-01-23T06:04:02.618Z,61.40
2019-01-23T06:06:31.501Z,63.67
2019-01-23T06:09:00.363Z,60.13
2019-01-23T06:11:29.265Z,59.53
2019-01-23T06:13:58.159Z,70.73
2019-01-23T06:16:27.040Z,66.73
2019-01-23T06:18:55.914Z,64.23
2019-01-23T06:21:24.800Z,65.07
2019-01-23T06:23:53.674Z,64.60
2019-01-23T06:26:22.518Z,60.43
2019-01-23T06:28:51.410Z,57.67
2019-01-23T06:31:20.360Z,62.17
2019-01-23T06:33:49.238Z,60.20
2019-01-23T06:36:18.108Z,61.83
2019-01-23T06:38:46.970Z,63.67
2019-01-23T06:41:15.889Z,66.23
2019-01-23T06:43:44.817Z,66.67
2019-01-23T06:46:13.713Z,61.40
2019-01-23T06:48:42.612Z,60.43
2019-01-23T06:51:11.521Z,70.93
2019-01-23T06:53:40.402Z,68.95
2019-01-23T06:56:09.336Z,73.47
2019-01-23T06:58:38.181Z,69.87
2019-01-23T07:01:07.133Z,66.63
2019-01-23T07:03:35.984Z,60.70
2019-01-23T07:06:04.877Z,63.03
2019-01-23T07:08:33.758Z,57.80
2019-01-23T07:11:02.864Z,60.77
2019-01-23T07:13:31.960Z,62.37
2019-01-23T07:16:00.849Z,60.27
2019-01-23T07:18:29.729Z,59.67
2019-01-23T07:20:58.643Z,61.07
2019-01-23T07:23:27.535Z,64.90
2019-01-23T07:25:56.477Z,64.47
2019-01-23T07:28:25.343Z,57.70
2019-01-23T07:30:54.239Z,59.87
2019-01-23T07:33:23.132Z,62.20
2019-01-23T07:35:52.504Z,62.13
2019-01-23T07:38:21.378Z,60.40
2019-01-23T07:40:50.282Z,62.80
2019-01-23T07:43:19.146Z,61.43
2019-01-23T07:45:48.044Z,63.53
2019-01-23T07:48:17.094Z,62.97
2019-01-23T07:50:45.795Z,64.00
2019-01-23T07:53:14.684Z,65.17
2019-01-23T07:55:43.557Z,66.07
2019-01-23T07:58:12.432Z,68.85
2019-01-23T08:00:41.287Z,61.83
2019-01-23T08:03:10.267Z,60.97
2019-01-23T08:05:39.113Z,64.53
2019-01-23T08:08:07.994Z,61.27
2019-01-23T08:10:36.876Z,62.33
2019-01-23T08:13:05.885Z,60.60
2019-01-23T08:15:36.071Z,62.93
2019-01-23T08:18:05.535Z,64.03
2019-01-23T08:20:34.489Z,67.07
2019-01-23T08:23:03.346Z,65.40
2019-01-23T08:25:32.221Z,64.70
2019-01-23T08:28:01.126Z,61.40
2019-01-23T08:30:29.992Z,62.03
2019-01-23T08:32:58.882Z,62.40
2019-01-23T08:35:27.745Z,65.57
2019-01-23T08:37:56.695Z,62.73
2019-01-23T08:40:25.502Z,63.73
2019-01-23T08:42:54.385Z,58.50
2019-01-23T08:45:23.255Z,62.70
2019-01-23T08:47:52.141Z,65.40
2019-01-23T08:50:41.729Z,63.77
2019-01-23T08:53:10.623Z,72.90
2019-01-23T08:55:39.497Z,63.60
2019-01-23T08:58:08.563Z,60.53
2019-01-23T09:00:37.428Z,59.63
2019-01-23T09:03:06.655Z,66.10
2019-01-23T09:05:35.862Z,62.83
2019-01-23T09:08:06.178Z,62.93
2019-01-23T09:10:35.263Z,67.67
2019-01-23T09:13:04.695Z,66.63
2019-01-23T09:15:36.241Z,60.87
2019-01-23T09:18:07.070Z,60.57
2019-01-23T09:20:35.274Z,68.97
2019-01-23T09:23:04.993Z,63.00
2019-01-23T09:25:37.128Z,61.07
2019-01-23T09:28:08.741Z,58.43
2019-01-23T09:30:55.802Z,56.00
2019-01-23T09:33:33.102Z,58.83
2019-01-23T09:36:49.062Z,66.47
2019-01-23T09:40:02.912Z,63.40
2019-01-23T09:43:13.495Z,57.40
2019-01-23T09:46:23.084Z,57.93
2019-01-23T09:49:29.530Z,58.80
2019-01-23T09:52:22.249Z,54.20
2019-01-23T09:54:54.381Z,56.77
2019-01-23T09:57:20.985Z,57.20
2019-01-23T09:59:50.067Z,58.60
2019-01-23T10:02:21.633Z,57.13
2019-01-23T10:04:50.783Z,57.20
2019-01-23T10:07:22.519Z,58.30
2019-01-23T10:09:56.640Z,51.93
2019-01-23T10:12:23.539Z,58.17
2019-01-23T10:14:58.433Z,52.87
2019-01-23T10:17:27.601Z,55.03
2019-01-23T10:19:58.429Z,55.50
2019-01-23T10:22:25.971Z,67.12
2019-01-23T10:24:55.163Z,60.50
2019-01-23T10:27:24.283Z,56.37
2019-01-23T10:29:53.619Z,61.93
2019-01-23T10:32:25.906Z,57.43
2019-01-23T10:34:57.577Z,56.23
2019-01-23T10:37:29.408Z,58.83
2019-01-23T10:39:58.606Z,54.93
2019-01-23T10:42:27.751Z,59.33
2019-01-23T10:44:56.992Z,62.13
2019-01-23T10:47:31.450Z,61.42
2019-01-23T10:50:04.821Z,59.67
2019-01-23T10:52:34.048Z,55.63
2019-01-23T10:55:03.484Z,56.87
2019-01-23T10:57:33.043Z,55.03
2019-01-23T11:00:02.121Z,59.40
2019-01-23T11:02:31.218Z,56.13
2019-01-23T11:05:00.299Z,58.90
2019-01-23T11:07:31.446Z,60.57
2019-01-23T11:10:00.855Z,61.47
2019-01-23T11:12:30.114Z,60.33
2019-01-23T11:14:59.550Z,59.83
2019-01-23T11:17:28.819Z,56.33
2019-01-23T11:19:58.268Z,66.00
2019-01-23T11:22:27.292Z,56.67
2019-01-23T11:24:56.485Z,57.80
2019-01-23T11:27:33.249Z,57.93
2019-01-23T11:30:02.387Z,58.83
2019-01-23T11:32:33.795Z,56.23
2019-01-23T11:35:03.542Z,59.70
2019-01-23T11:37:33.327Z,61.33
2019-01-23T11:40:07.048Z,58.07
2019-01-23T11:42:36.394Z,66.10
2019-01-23T11:45:06.855Z,59.03
2019-01-23T11:47:35.874Z,59.33
2019-01-23T11:50:06.589Z,56.50
2019-01-23T11:52:38.009Z,54.47
2019-01-23T11:55:08.040Z,53.70
2019-01-23T11:57:38.197Z,54.17
2019-01-23T12:00:11.199Z,56.90
2019-01-23T12:02:44.152Z,60.07
2019-01-23T12:05:14.805Z,52.17
2019-01-23T12:07:44.255Z,57.75
2019-01-23T12:10:18.853Z,53.07
2019-01-23T12:12:50.602Z,56.57
2019-01-23T12:15:22.789Z,55.50
2019-01-23T12:17:54.578Z,49.27
2019-01-23T12:20:24.063Z,45.37
2019-01-23T12:22:55.362Z,46.00
2019-01-23T12:25:25.560Z,46.73
2019-01-23T12:27:54.787Z,45.90
2019-01-23T12:30:26.555Z,48.87
2019-01-23T12:32:55.671Z,44.90
2019-01-23T12:35:24.691Z,51.23
2019-01-23T12:37:54.138Z,56.87
2019-01-23T12:40:23.490Z,53.30
2019-01-23T12:42:52.718Z,52.40
2019-01-23T12:45:24.026Z,52.37
2019-01-23T12:47:53.230Z,48.53
2019-01-23T12:50:28.871Z,52.83
2019-01-23T12:52:57.755Z,44.70
2019-01-23T12:55:26.624Z,48.23
2019-01-23T12:57:55.608Z,48.27
2019-01-23T13:00:26.476Z,46.57
2019-01-23T13:02:55.436Z,43.17
2019-01-23T13:05:24.378Z,47.27
2019-01-23T13:07:53.216Z,47.03
2019-01-23T13:10:22.218Z,43.60
2019-01-23T13:12:52.145Z,44.73
2019-01-23T13:15:24.461Z,41.87
2019-01-23T13:17:54.453Z,40.63
2019-01-23T13:20:24.923Z,39.00
2019-01-23T13:22:55.228Z,44.87
2019-01-23T13:25:25.500Z,47.00
2019-01-23T13:27:54.714Z,43.47
2019-01-23T13:30:25.023Z,42.77
2019-01-23T13:32:53.902Z,49.37
2019-01-23T13:35:25.258Z,45.17
2019-01-23T13:37:54.334Z,52.10
2019-01-23T13:40:25.366Z,47.47
2019-01-23T13:42:54.265Z,51.50
2019-01-23T13:45:23.154Z,45.30
2019-01-23T13:47:52.000Z,48.03
2019-01-23T13:50:20.879Z,50.03
2019-01-23T13:52:49.741Z,52.57
2019-01-23T13:55:19.336Z,52.97
2019-01-23T13:57:48.282Z,53.00
2019-01-23T14:00:31.653Z,57.80
2019-01-23T14:03:00.566Z,51.33
2019-01-23T14:05:29.473Z,56.53
2019-01-23T14:07:58.384Z,56.27
2019-01-23T14:10:27.316Z,51.57
2019-01-23T14:12:56.211Z,55.07
2019-01-23T14:15:31.100Z,56.87
2019-01-23T14:18:00.043Z,56.63
2019-01-23T14:20:28.913Z,54.23
2019-01-23T14:22:57.789Z,60.87
2019-01-23T14:25:26.706Z,54.20
2019-01-23T14:27:55.638Z,58.03
2019-01-23T14:30:33.040Z,57.17
2019-01-23T14:33:02.202Z,60.30
2019-01-23T14:35:32.142Z,58.23
2019-01-23T14:38:01.152Z,55.27
2019-01-23T14:40:29.962Z,56.97
2019-01-23T14:42:58.818Z,55.90
2019-01-23T14:45:27.730Z,59.10
2019-01-23T14:47:56.630Z,55.77
2019-01-23T14:50:25.536Z,60.23
2019-01-23T14:52:54.425Z,59.20
2019-01-23T14:55:23.353Z,59.07
2019-01-23T14:57:52.297Z,58.63
2019-01-23T15:00:25.937Z,64.07
2019-01-23T15:02:54.811Z,62.83
2019-01-23T15:05:23.746Z,61.17
2019-01-23T15:07:52.679Z,58.63
2019-01-23T15:10:26.428Z,59.90
2019-01-23T15:12:55.377Z,60.23
2019-01-23T15:15:24.293Z,57.90
2019-01-23T15:17:53.735Z,59.87
2019-01-23T15:20:31.123Z,65.67
2019-01-23T15:23:00.012Z,63.20
2019-01-23T15:25:28.901Z,63.27
2019-01-23T15:27:57.802Z,65.37
2019-01-23T15:30:26.721Z,66.60
2019-01-23T15:32:55.613Z,57.30
2019-01-23T15:35:24.487Z,59.53
2019-01-23T15:37:53.444Z,62.13
2019-01-23T15:40:24.681Z,59.70
2019-01-23T15:42:53.623Z,62.73
2019-01-23T15:45:22.568Z,65.47
2019-01-23T15:47:51.482Z,64.87
2019-01-23T15:50:22.109Z,61.77
2019-01-23T15:52:51.082Z,59.80
2019-01-23T15:55:21.163Z,64.53
2019-01-23T15:57:50.067Z,69.95
2019-01-23T16:00:26.868Z,60.53
2019-01-23T16:02:55.759Z,64.37
2019-01-23T16:05:24.784Z,64.33
2019-01-23T16:07:53.688Z,64.50
2019-01-23T16:10:24.178Z,65.57
2019-01-23T16:12:53.162Z,63.52
2019-01-23T16:15:23.179Z,61.20
2019-01-23T16:17:52.055Z,62.13
2019-01-23T16:20:20.941Z,61.77
2019-01-23T16:22:49.791Z,59.77
2019-01-23T16:25:18.677Z,61.53
2019-01-23T16:27:47.578Z,60.93
2019-01-23T16:30:22.405Z,59.70
2019-01-23T16:32:51.263Z,65.13
2019-01-23T16:35:20.270Z,60.93
2019-01-23T16:37:49.367Z,62.07
2019-01-23T16:40:18.259Z,61.40
2019-01-23T16:42:47.162Z,54.73
2019-01-23T16:45:16.469Z,56.80
2019-01-23T16:47:45.727Z,54.70
2019-01-23T16:50:16.789Z,53.87
2019-01-23T16:52:45.718Z,52.80
2019-01-23T16:55:14.610Z,59.13
2019-01-23T16:57:43.505Z,58.60
2019-01-23T17:00:13.964Z,56.60
2019-01-23T17:02:42.920Z,56.73
2019-01-23T17:05:15.090Z,53.03
2019-01-23T17:07:44.352Z,57.20
2019-01-23T17:10:15.582Z,56.83
2019-01-23T17:12:44.478Z,54.40
2019-01-23T17:15:13.389Z,61.87
2019-01-23T17:17:42.296Z,56.20
2019-01-23T17:20:17.274Z,54.30
2019-01-23T17:22:46.157Z,54.83
2019-01-23T17:25:15.022Z,52.30
2019-01-23T17:27:43.919Z,56.13
2019-01-23T17:30:13.268Z,59.73
2019-01-23T17:32:45.797Z,62.80
2019-01-23T17:35:11.840Z,57.60
2019-01-23T17:37:40.704Z,62.03
2019-01-23T17:40:11.470Z,57.87
2019-01-23T17:42:40.411Z,57.83
2019-01-23T17:45:23.539Z,58.60
2019-01-23T17:47:52.507Z,57.77
2019-01-23T17:50:21.817Z,58.30
2019-01-23T17:52:50.876Z,63.43
2019-01-23T17:55:28.287Z,60.27
2019-01-23T17:57:57.569Z,57.37
2019-01-23T18:00:27.965Z,52.90
2019-01-23T18:02:56.861Z,58.73
2019-01-23T18:05:25.772Z,56.27
2019-01-23T18:07:55.520Z,55.90
2019-01-23T18:10:23.545Z,56.63
2019-01-23T18:12:52.421Z,62.80
2019-01-23T18:15:22.993Z,54.43
2019-01-23T18:17:51.905Z,54.87
2019-01-23T18:20:23.100Z,56.43
2019-01-23T18:22:51.984Z,52.10
2019-01-23T18:25:20.850Z,60.37
2019-01-23T18:27:49.746Z,53.63
2019-01-23T18:30:34.190Z,50.50
2019-01-23T18:33:03.990Z,49.50
2019-01-23T18:35:49.018Z,54.57
2019-01-23T18:38:40.026Z,49.33
2019-01-23T18:41:45.606Z,57.10
2019-01-23T18:44:42.968Z,56.73
2019-01-23T18:47:37.691Z,55.35
2019-01-23T18:50:34.619Z,53.90
2019-01-23T18:53:03.505Z,52.70
2019-01-23T18:55:32.474Z,55.13
2019-01-23T18:58:01.373Z,48.30
2019-01-23T19:00:30.248Z,53.40
2019-01-23T19:02:59.159Z,54.63
2019-01-23T19:05:28.029Z,55.60
2019-01-23T19:07:56.940Z,56.30
2019-01-23T19:10:25.825Z,53.50
2019-01-23T19:12:54.730Z,51.20
2019-01-23T19:15:23.600Z,52.27
2019-01-23T19:17:52.493Z,53.80
2019-01-23T19:20:21.413Z,51.40
2019-01-23T19:22:50.289Z,53.53
2019-01-23T19:25:19.198Z,53.77
2019-01-23T19:27:48.107Z,50.83
2019-01-23T19:30:19.908Z,53.57
2019-01-23T19:32:48.802Z,53.17
2019-01-23T19:35:17.661Z,61.57
2019-01-23T19:37:46.566Z,61.02
2019-01-23T19:40:15.446Z,55.27
2019-01-23T19:42:44.348Z,57.33
2019-01-23T19:45:16.414Z,53.40
2019-01-23T19:47:45.373Z,53.57
2019-01-23T19:50:14.338Z,55.00
2019-01-23T19:52:43.207Z,53.20
2019-01-23T19:55:13.823Z,56.50
2019-01-23T19:57:42.416Z,55.13
2019-01-23T20:00:17.008Z,53.57
2019-01-23T20:02:45.903Z,56.85
2019-01-23T20:05:16.870Z,52.53
2019-01-23T20:07:45.771Z,53.37
2019-01-23T20:10:17.230Z,63.73
2019-01-23T20:12:44.988Z,58.42
2019-01-23T20:15:14.993Z,52.83
2019-01-23T20:17:43.925Z,53.30
2019-01-23T20:20:14.660Z,53.23
2019-01-23T20:22:43.576Z,59.97
2019-01-23T20:25:18.490Z,52.60
2019-01-23T20:27:47.400Z,57.53
2019-01-23T20:30:25.457Z,56.20
2019-01-23T20:32:54.345Z,53.77
2019-01-23T20:35:23.269Z,56.77
2019-01-23T20:37:52.147Z,61.03
2019-01-23T20:40:21.020Z,55.83
2019-01-23T20:42:50.332Z,55.37
2019-01-23T20:45:19.195Z,56.40
2019-01-23T20:47:48.093Z,55.57
2019-01-23T20:50:19.936Z,61.08
2019-01-23T20:52:48.802Z,62.10
2019-01-23T20:55:17.652Z,58.30
2019-01-23T20:57:46.548Z,58.43
2019-01-23T21:00:26.807Z,55.63
2019-01-23T21:02:55.685Z,57.90
2019-01-23T21:05:24.558Z,57.83
2019-01-23T21:07:53.454Z,60.83
2019-01-23T21:10:22.620Z,57.93
2019-01-23T21:12:51.536Z,55.90
2019-01-23T21:15:22.782Z,57.77
2019-01-23T21:17:51.654Z,57.23
2019-01-23T21:20:20.546Z,62.43
2019-01-23T21:22:49.457Z,58.73
2019-01-23T21:25:18.375Z,59.97
2019-01-23T21:27:47.270Z,64.17
2019-01-23T21:30:18.584Z,60.90
2019-01-23T21:32:47.487Z,57.73
2019-01-23T21:35:16.548Z,59.07
2019-01-23T21:37:45.458Z,60.30
2019-01-23T21:40:19.789Z,58.47
2019-01-23T21:42:48.685Z,59.97
2019-01-23T21:45:17.569Z,62.23
2019-01-23T21:47:47.074Z,60.33
2019-01-23T21:50:17.721Z,60.43
2019-01-23T21:52:46.612Z,63.98
2019-01-23T21:55:16.922Z,59.27
2019-01-23T21:57:45.838Z,55.93
2019-01-23T22:00:18.351Z,55.13
2019-01-23T22:02:47.228Z,59.17
2019-01-23T22:05:16.137Z,55.13
2019-01-23T22:07:45.039Z,61.10
2019-01-23T22:10:13.980Z,58.60
2019-01-23T22:12:42.858Z,61.67
2019-01-23T22:15:13.887Z,59.70
2019-01-23T22:17:42.754Z,60.47
2019-01-23T22:20:13.940Z,64.67
2019-01-23T22:22:42.810Z,63.27
2019-01-23T22:25:13.050Z,58.63
2019-01-23T22:27:41.924Z,58.57
2019-01-23T22:30:14.002Z,62.37
2019-01-23T22:32:42.890Z,60.63
2019-01-23T22:35:11.793Z,68.10
2019-01-23T22:37:40.661Z,67.67
2019-01-23T22:40:10.486Z,60.50
2019-01-23T22:42:39.355Z,65.47
2019-01-23T22:45:10.314Z,65.47
2019-01-23T22:47:39.195Z,61.97
2019-01-23T22:50:11.057Z,63.93
2019-01-23T22:52:39.951Z,66.93
2019-01-23T22:55:09.357Z,69.63
2019-01-23T22:57:38.252Z,68.00
2019-01-23T23:00:38.725Z,66.87
2019-01-23T23:03:10.747Z,65.13
2019-01-23T23:05:39.654Z,63.93
2019-01-23T23:08:08.528Z,65.13
2019-01-23T23:10:37.418Z,64.70
2019-01-23T23:13:06.321Z,65.97
2019-01-23T23:15:35.223Z,66.47
2019-01-23T23:18:04.252Z,65.67
2019-01-23T23:20:33.117Z,67.83
2019-01-23T23:23:01.981Z,65.63
2019-01-23T23:25:30.883Z,67.03
2019-01-23T23:27:59.769Z,60.50
2019-01-23T23:30:28.634Z,66.93
2019-01-23T23:32:57.556Z,69.37
2019-01-23T23:35:26.441Z,74.30
2019-01-23T23:37:55.371Z,66.93
2019-01-23T23:40:24.232Z,68.73
2019-01-23T23:42:53.112Z,72.23
2019-01-23T23:45:22.009Z,66.90
2019-01-23T23:47:50.883Z,67.97
2019-01-23T23:50:19.763Z,63.17
2019-01-23T23:52:48.666Z,69.47
2019-01-23T23:55:17.533Z,63.00
2019-01-23T23:57:46.404Z,61.60
